Time;durP1;ratioP1;P1;durP2;ratioP2;P2;SDS_P1;SDS_P2;PMS_P1;PMS_P2;Temp;Humidity;BMP_temperature;BMP_pressure;BME280_temperature;BME280_humidity;BME280_pressure;Samples;Min_cycle;Max_cycle;Signal;HPM_P1;HPM_P2
2022/08/08 00:02:09;;;;;;;8.15;6.63;;;;;;;;;;5037314;28;20053;-81
2022/08/08 00:05:27;;;;;;;10.60;6.40;;;;;;;;;;5037395;28;20057;-78
2022/08/08 00:08:25;;;;;;;7.63;6.22;;;;;;;;;;5030657;28;20041;-82
2022/08/08 00:11:21;;;;;;;9.45;6.20;;;;;;;;;;5037831;28;20391;-78
2022/08/08 00:14:09;;;;;;;8.55;6.47;;;;;;;;;;5036843;28;20045;-78
2022/08/08 00:17:09;;;;;;;8.38;5.85;;;;;;;;;;5036856;28;20042;-81
2022/08/08 00:20:01;;;;;;;6.57;5.90;;;;;;;;;;5037591;28;20403;-80
2022/08/08 00:22:50;;;;;;;7.18;6.00;;;;;;;;;;5036267;28;20041;-78
2022/08/08 00:25:41;;;;;;;10.45;7.50;;;;;;;;;;5036748;28;20049;-78
2022/08/08 00:28:36;;;;;;;9.13;6.88;;;;;;;;;;5036634;28;20499;-81
2022/08/08 00:31:25;;;;;;;9.20;6.78;;;;;;;;;;5028521;28;20049;-82
2022/08/08 00:37:51;;;;;;;10.63;6.53;;;;;;;;;;5036552;28;20038;-83
2022/08/08 00:41:21;;;;;;;7.75;6.07;;;;;;;;;;5028337;28;20042;-79
2022/08/08 00:44:41;;;;;;;9.55;6.47;;;;;;;;;;4948277;28;20047;-81
2022/08/08 00:48:09;;;;;;;7.70;6.03;;;;;;;;;;5028097;28;20038;-79
2022/08/08 00:52:05;;;;;;;8.70;6.82;;;;;;;;;;5036406;28;20403;-78
2022/08/08 00:55:27;;;;;;;11.60;6.95;;;;;;;;;;4955748;29;20043;-78
2022/08/08 00:58:44;;;;;;;12.43;6.63;;;;;;;;;;4954735;29;20043;-80
2022/08/08 01:01:48;;;;;;;11.45;6.93;;;;;;;;;;5026891;28;20061;-78
2022/08/08 01:05:31;;;;;;;10.02;7.75;;;;;;;;;;5027555;28;20049;-78
2022/08/08 01:09:05;;;;;;;12.68;7.78;;;;;;;;;;5027723;28;20045;-80
2022/08/08 01:11:54;;;;;;;10.50;6.95;;;;;;;;;;4922618;29;20055;-80
2022/08/08 01:15:07;;;;;;;13.13;7.88;;;;;;;;;;4936244;29;20051;-80
2022/08/08 01:18:25;;;;;;;8.65;7.35;;;;;;;;;;5027421;28;20390;-78
2022/08/08 01:21:30;;;;;;;10.88;7.00;;;;;;;;;;5026489;28;20053;-80
2022/08/08 01:24:43;;;;;;;8.80;7.13;;;;;;;;;;5027010;28;20430;-79
2022/08/08 01:28:23;;;;;;;13.90;8.20;;;;;;;;;;5026921;28;20075;-81
2022/08/08 01:31:51;;;;;;;15.27;12.07;;;;;;;;;;4997710;28;20362;-78
2022/08/08 01:35:13;;;;;;;12.15;9.10;;;;;;;;;;4966655;28;20047;-81
2022/08/08 01:38:26;;;;;;;33.05;24.73;;;;;;;;;;5025423;28;20049;-81
2022/08/08 01:41:28;;;;;;;26.52;17.00;;;;;;;;;;5027097;28;20038;-79
2022/08/08 01:44:57;;;;;;;10.00;9.00;;;;;;;;;;5035005;28;20054;-80
2022/08/08 01:48:10;;;;;;;13.43;10.60;;;;;;;;;;5026916;28;20042;-80
2022/08/08 01:51:07;;;;;;;10.67;8.53;;;;;;;;;;5035260;28;20045;-81
2022/08/08 01:53:55;;;;;;;;;;;;;;;;;;5020916;28;20049;-79
2022/08/08 01:57:00;;;;;;;12.55;8.00;;;;;;;;;;5027247;28;19913;-80
2022/08/08 02:00:07;;;;;;;11.02;8.30;;;;;;;;;;5026522;28;20057;-77
2022/08/08 02:03:27;;;;;;;9.27;7.70;;;;;;;;;;5026481;28;20045;-78
2022/08/08 02:06:26;;;;;;;9.10;7.60;;;;;;;;;;5026484;28;20042;-78
2022/08/08 02:09:43;;;;;;;8.95;7.30;;;;;;;;;;5026421;28;20500;-78
2022/08/08 02:12:41;;;;;;;10.00;7.68;;;;;;;;;;5026750;28;20053;-78
2022/08/08 02:15:39;;;;;;;10.93;7.55;;;;;;;;;;5026719;28;20037;-78
2022/08/08 02:18:38;;;;;;;8.55;7.00;;;;;;;;;;5026284;28;20045;-79
2022/08/08 02:25:18;;;;;;;9.25;6.97;;;;;;;;;;5026101;28;20387;-79
2022/08/08 02:28:16;;;;;;;8.82;5.90;;;;;;;;;;4927952;29;20076;-79
2022/08/08 02:31:25;;;;;;;6.70;6.03;;;;;;;;;;4928127;29;20055;-79
2022/08/08 02:34:45;;;;;;;7.72;6.85;;;;;;;;;;5026007;28;20426;-80
2022/08/08 02:37:34;;;;;;;7.57;6.40;;;;;;;;;;5026235;28;20045;-78
2022/08/08 02:40:41;;;;;;;6.63;5.97;;;;;;;;;;5026208;28;20045;-79
2022/08/08 02:43:43;;;;;;;9.57;6.07;;;;;;;;;;5025843;28;20399;-78
2022/08/08 02:46:29;;;;;;;7.18;5.63;;;;;;;;;;5026001;28;20049;-79
2022/08/08 02:49:50;;;;;;;8.75;6.00;;;;;;;;;;5034036;28;20487;-78
2022/08/08 02:52:38;;;;;;;6.95;6.00;;;;;;;;;;5025740;28;20045;-79
2022/08/08 02:56:01;;;;;;;6.65;5.95;;;;;;;;;;5025595;28;20038;-79
2022/08/08 02:59:24;;;;;;;7.95;6.32;;;;;;;;;;5025927;28;20483;-82
2022/08/08 03:02:38;;;;;;;7.50;5.97;;;;;;;;;;5025612;28;20403;-81
2022/08/08 03:06:08;;;;;;;11.68;6.20;;;;;;;;;;5022378;28;20398;-80
2022/08/08 03:09:13;;;;;;;7.38;6.60;;;;;;;;;;4940535;29;20044;-81
2022/08/08 03:12:15;;;;;;;9.15;6.45;;;;;;;;;;5030511;28;20041;-79
2022/08/08 03:15:41;;;;;;;7.45;6.50;;;;;;;;;;5039212;28;20049;-80
2022/08/08 03:18:32;;;;;;;8.85;6.80;;;;;;;;;;5030832;28;20050;-79
2022/08/08 03:21:19;;;;;;;8.68;7.28;;;;;;;;;;5028793;28;20041;-79
2022/08/08 03:24:05;;;;;;;8.98;6.53;;;;;;;;;;5030403;28;20037;-80
2022/08/08 03:27:08;;;;;;;8.38;6.72;;;;;;;;;;5038594;28;20057;-80
2022/08/08 03:30:02;;;;;;;7.90;7.07;;;;;;;;;;5025363;28;20041;-79
2022/08/08 03:35:56;;;;;;;8.07;6.88;;;;;;;;;;5037572;28;20037;-79
2022/08/08 03:38:50;;;;;;;9.25;7.90;;;;;;;;;;5029552;28;20038;-79
2022/08/08 03:41:36;;;;;;;8.77;7.53;;;;;;;;;;5029463;28;20402;-80
2022/08/08 03:44:30;;;;;;;10.15;7.93;;;;;;;;;;5037225;28;20037;-80
2022/08/08 03:47:20;;;;;;;9.80;7.35;;;;;;;;;;5029346;28;20033;-79
2022/08/08 03:50:16;;;;;;;8.98;7.85;;;;;;;;;;5029353;28;20058;-79
2022/08/08 03:53:07;;;;;;;8.52;7.60;;;;;;;;;;5037619;28;20498;-79
2022/08/08 03:55:53;;;;;;;9.73;7.68;;;;;;;;;;5037280;28;20050;-78
2022/08/08 03:58:38;;;;;;;9.98;8.30;;;;;;;;;;5037229;28;20049;-79
2022/08/08 04:01:38;;;;;;;9.30;7.85;;;;;;;;;;5028922;28;20057;-81
2022/08/08 04:04:23;;;;;;;9.23;7.47;;;;;;;;;;5036891;28;20041;-81
2022/08/08 04:07:09;;;;;;;9.15;7.22;;;;;;;;;;5028856;28;20065;-80
2022/08/08 04:09:56;;;;;;;9.40;7.65;;;;;;;;;;5037227;28;20041;-79
2022/08/08 04:12:41;;;;;;;9.52;8.18;;;;;;;;;;5028447;28;20049;-79
2022/08/08 04:15:27;;;;;;;10.02;7.95;;;;;;;;;;5022627;28;20061;-79
2022/08/08 04:18:13;;;;;;;7.95;7.15;;;;;;;;;;5036879;28;20045;-78
2022/08/08 04:20:59;;;;;;;8.93;7.53;;;;;;;;;;5036729;28;20053;-77
2022/08/08 04:23:44;;;;;;;10.80;8.02;;;;;;;;;;5036656;28;20495;-79
2022/08/08 04:26:29;;;;;;;10.07;7.88;;;;;;;;;;5028361;28;20042;-78
2022/08/08 04:29:14;;;;;;;10.07;8.13;;;;;;;;;;5028203;28;20037;-80
2022/08/08 04:32:00;;;;;;;10.55;7.90;;;;;;;;;;5036865;28;20045;-80
2022/08/08 04:34:47;;;;;;;9.60;7.47;;;;;;;;;;5028222;28;20414;-77
2022/08/08 04:37:32;;;;;;;11.68;7.90;;;;;;;;;;5028338;28;20042;-78
2022/08/08 04:40:23;;;;;;;9.45;8.02;;;;;;;;;;5022245;28;20045;-80
2022/08/08 04:43:11;;;;;;;12.55;7.93;;;;;;;;;;5028248;28;20045;-80
2022/08/08 04:46:01;;;;;;;8.27;7.47;;;;;;;;;;5026955;28;20463;-80
2022/08/08 04:48:47;;;;;;;11.57;8.10;;;;;;;;;;5027806;28;20487;-78
2022/08/08 04:51:33;;;;;;;10.05;8.52;;;;;;;;;;5027906;28;20049;-77
2022/08/08 04:54:18;;;;;;;10.43;8.55;;;;;;;;;;5027349;28;20050;-80
2022/08/08 04:57:03;;;;;;;10.90;8.18;;;;;;;;;;5027892;28;20045;-78
2022/08/08 04:59:48;;;;;;;9.45;8.07;;;;;;;;;;5027632;28;20045;-79
2022/08/08 05:02:33;;;;;;;10.00;7.97;;;;;;;;;;5027684;28;20041;-80
2022/08/08 05:05:19;;;;;;;12.82;8.45;;;;;;;;;;5027246;28;20037;-83
2022/08/08 05:08:04;;;;;;;9.70;7.53;;;;;;;;;;5036112;28;20485;-80
2022/08/08 05:10:50;;;;;;;12.07;8.75;;;;;;;;;;5027794;28;20041;-79
2022/08/08 05:13:35;;;;;;;12.25;8.18;;;;;;;;;;5035950;28;20037;-79
2022/08/08 05:16:21;;;;;;;10.05;8.30;;;;;;;;;;5027431;28;20402;-77
2022/08/08 05:19:11;;;;;;;8.88;7.95;;;;;;;;;;5027382;28;20045;-79
2022/08/08 05:21:56;;;;;;;10.60;9.48;;;;;;;;;;5024071;28;20042;-79
2022/08/08 05:24:42;;;;;;;13.00;9.68;;;;;;;;;;5035088;28;20053;-79
2022/08/08 05:27:29;;;;;;;16.23;9.30;;;;;;;;;;5026913;28;20053;-79
2022/08/08 05:30:14;;;;;;;12.05;9.73;;;;;;;;;;5022071;28;20045;-78
2022/08/08 05:33:03;;;;;;;10.95;9.00;;;;;;;;;;5026709;28;20046;-80
2022/08/08 05:35:52;;;;;;;11.40;8.32;;;;;;;;;;5027133;28;20042;-81
2022/08/08 05:38:45;;;;;;;10.88;8.45;;;;;;;;;;5035378;28;20046;-81
2022/08/08 05:41:34;;;;;;;10.75;7.93;;;;;;;;;;5027393;28;20034;-81
2022/08/08 05:44:28;;;;;;;11.40;8.15;;;;;;;;;;5035363;28;20045;-79
2022/08/08 05:47:14;;;;;;;9.70;7.43;;;;;;;;;;5026940;28;20053;-79
2022/08/08 05:50:03;;;;;;;8.18;6.65;;;;;;;;;;5035336;28;20053;-81
2022/08/08 05:52:49;;;;;;;8.70;7.13;;;;;;;;;;5026753;28;20050;-81
2022/08/08 05:55:35;;;;;;;8.60;7.18;;;;;;;;;;5020684;28;20045;-80
2022/08/08 05:58:27;;;;;;;8.93;7.28;;;;;;;;;;5034501;28;20407;-80
2022/08/08 06:01:14;;;;;;;9.70;7.75;;;;;;;;;;5035033;28;20049;-80
2022/08/08 06:04:02;;;;;;;8.73;7.40;;;;;;;;;;5025746;28;20041;-80
2022/08/08 06:06:48;;;;;;;11.07;8.88;;;;;;;;;;5034720;28;20045;-80
2022/08/08 06:09:36;;;;;;;8.35;7.45;;;;;;;;;;5035028;28;20383;-80
2022/08/08 06:12:23;;;;;;;12.98;7.82;;;;;;;;;;5025238;28;20049;-80
2022/08/08 06:15:10;;;;;;;11.90;8.45;;;;;;;;;;5034852;28;20414;-79
2022/08/08 06:17:59;;;;;;;11.32;8.20;;;;;;;;;;5026084;28;20045;-79
2022/08/08 06:20:49;;;;;;;9.18;7.57;;;;;;;;;;5034537;28;20049;-78
2022/08/08 06:23:38;;;;;;;10.57;8.55;;;;;;;;;;5026487;28;20037;-80
2022/08/08 06:26:30;;;;;;;15.65;9.27;;;;;;;;;;5025918;28;20046;-79
2022/08/08 06:29:24;;;;;;;12.65;7.90;;;;;;;;;;5026116;28;20042;-80
2022/08/08 06:32:13;;;;;;;14.90;9.90;;;;;;;;;;5034246;28;20041;-79
2022/08/08 06:35:04;;;;;;;18.15;9.80;;;;;;;;;;5025727;28;20049;-79
2022/08/08 06:37:59;;;;;;;13.82;9.85;;;;;;;;;;5026102;28;20038;-79
2022/08/08 06:40:50;;;;;;;13.52;9.38;;;;;;;;;;5025338;28;20483;-82
2022/08/08 06:43:42;;;;;;;9.25;8.20;;;;;;;;;;5026020;28;20046;-81
2022/08/08 06:46:35;;;;;;;10.02;7.75;;;;;;;;;;5026158;28;20049;-79
2022/08/08 06:49:21;;;;;;;10.55;7.57;;;;;;;;;;5033638;28;20053;-77
2022/08/08 06:52:06;;;;;;;11.13;7.72;;;;;;;;;;5033989;28;20045;-79
2022/08/08 06:54:57;;;;;;;10.32;7.78;;;;;;;;;;5033907;28;20390;-81
2022/08/08 06:57:43;;;;;;;10.30;7.65;;;;;;;;;;5025352;28;20402;-81
2022/08/08 07:00:36;;;;;;;10.07;6.80;;;;;;;;;;5020133;28;20045;-80
2022/08/08 07:03:37;;;;;;;7.47;6.68;;;;;;;;;;5025655;28;20042;-76
2022/08/08 07:06:30;;;;;;;8.25;6.25;;;;;;;;;;5025486;28;20049;-84
2022/08/08 07:09:19;;;;;;;10.40;6.75;;;;;;;;;;5024091;28;20041;-84
2022/08/08 07:12:08;;;;;;;16.95;14.30;;;;;;;;;;5025389;28;20406;-83
2022/08/08 07:15:05;;;;;;;10.55;7.50;;;;;;;;;;5025417;28;20049;-80
2022/08/08 07:17:59;;;;;;;8.27;6.40;;;;;;;;;;5025143;28;20049;-84
2022/08/08 07:20:47;;;;;;;10.38;6.82;;;;;;;;;;5019509;28;20046;-85
2022/08/08 07:24:02;;;;;;;8.70;6.43;;;;;;;;;;5011767;28;20046;-85
2022/08/08 07:26:52;;;;;;;9.25;6.90;;;;;;;;;;5012746;28;20411;-84
2022/08/08 07:29:38;;;;;;;8.20;7.00;;;;;;;;;;5019058;28;20395;-83
2022/08/08 07:32:25;;;;;;;9.20;6.80;;;;;;;;;;5019512;28;20398;-84
2022/08/08 07:35:12;;;;;;;8.82;6.25;;;;;;;;;;5019095;28;20475;-84
2022/08/08 07:38:02;;;;;;;7.95;6.53;;;;;;;;;;5018709;28;20394;-85
2022/08/08 07:40:57;;;;;;;;;;;;;;;;;;5019644;28;20395;-82
2022/08/08 07:43:44;;;;;;;7.53;6.40;;;;;;;;;;5018718;28;19917;-81
2022/08/08 07:46:29;;;;;;;7.75;6.38;;;;;;;;;;5018709;28;20045;-82
2022/08/08 07:49:18;;;;;;;9.07;6.32;;;;;;;;;;5019358;28;20038;-80
2022/08/08 07:52:07;;;;;;;9.02;6.40;;;;;;;;;;5018755;28;20046;-80
2022/08/08 07:55:04;;;;;;;7.18;5.55;;;;;;;;;;5019268;28;20057;-79
2022/08/08 07:58:16;;;;;;;9.32;5.43;;;;;;;;;;5018854;28;20066;-79
2022/08/08 08:01:07;;;;;;;10.85;5.95;;;;;;;;;;5018996;28;20046;-80
2022/08/08 08:04:03;;;;;;;6.18;5.55;;;;;;;;;;5013623;28;20038;-80
2022/08/08 08:06:51;;;;;;;7.18;5.50;;;;;;;;;;5018227;28;20054;-80
2022/08/08 08:09:39;;;;;;;7.88;5.93;;;;;;;;;;5013430;28;20046;-81
2022/08/08 08:12:25;;;;;;;6.35;5.70;;;;;;;;;;5018590;28;20045;-80
2022/08/08 08:15:15;;;;;;;6.60;5.38;;;;;;;;;;5013343;28;20050;-80
2022/08/08 08:18:04;;;;;;;7.88;5.20;;;;;;;;;;5019873;28;20392;-80
2022/08/08 08:20:53;;;;;;;10.13;5.75;;;;;;;;;;5014759;28;20042;-81
2022/08/08 08:23:38;;;;;;;8.52;5.93;;;;;;;;;;5015942;28;20046;-82
2022/08/08 08:26:25;;;;;;;7.00;5.45;;;;;;;;;;5022172;28;20054;-82
2022/08/08 08:29:11;;;;;;;6.90;5.68;;;;;;;;;;5022364;28;20050;-82
2022/08/08 08:31:59;;;;;;;7.22;6.13;;;;;;;;;;5022158;28;20046;-81
2022/08/08 08:34:45;;;;;;;7.25;5.57;;;;;;;;;;5008305;28;20495;-82
2022/08/08 08:37:31;;;;;;;6.53;5.22;;;;;;;;;;5022488;28;20396;-81
2022/08/08 08:40:18;;;;;;;9.27;6.28;;;;;;;;;;5022405;28;20049;-81
2022/08/08 08:43:04;;;;;;;6.80;5.82;;;;;;;;;;5021993;28;20046;-82
2022/08/08 08:45:54;;;;;;;7.47;5.90;;;;;;;;;;5016068;28;20054;-80
2022/08/08 08:48:42;;;;;;;7.32;5.53;;;;;;;;;;5021264;28;20045;-79
2022/08/08 08:51:31;;;;;;;8.30;6.30;;;;;;;;;;5022098;28;20038;-79
2022/08/08 08:54:21;;;;;;;10.05;6.15;;;;;;;;;;5022451;28;20041;-81
2022/08/08 08:57:09;;;;;;;16.02;5.65;;;;;;;;;;5021750;28;20058;-82
2022/08/08 08:59:57;;;;;;;13.70;5.43;;;;;;;;;;5015155;28;20042;-81
2022/08/08 09:02:45;;;;;;;6.63;4.78;;;;;;;;;;5020727;28;20042;-79
2022/08/08 09:05:34;;;;;;;4.70;4.20;;;;;;;;;;5021463;28;20050;-80
2022/08/08 09:08:23;;;;;;;7.45;5.35;;;;;;;;;;5021746;28;20045;-79
2022/08/08 09:11:10;;;;;;;9.50;5.70;;;;;;;;;;5021138;28;20049;-83
2022/08/08 09:13:55;;;;;;;11.43;5.25;;;;;;;;;;5021575;28;20042;-83
2022/08/08 09:16:41;;;;;;;7.53;4.75;;;;;;;;;;5021388;28;20050;-80
2022/08/08 09:19:26;;;;;;;8.48;5.05;;;;;;;;;;5021349;28;20483;-82
2022/08/08 09:22:13;;;;;;;9.88;5.10;;;;;;;;;;5021978;28;20076;-81
2022/08/08 09:24:59;;;;;;;7.30;4.75;;;;;;;;;;5027795;28;20042;-80
2022/08/08 09:27:46;;;;;;;5.40;4.90;;;;;;;;;;5026884;28;20037;-80
2022/08/08 09:30:35;;;;;;;7.68;5.18;;;;;;;;;;5027102;28;20046;-80
2022/08/08 09:33:24;;;;;;;6.65;5.03;;;;;;;;;;5034168;28;20487;-81
2022/08/08 09:36:20;;;;;;;6.78;5.80;;;;;;;;;;5027417;28;20053;-80
2022/08/08 09:39:08;;;;;;;8.77;5.10;;;;;;;;;;5026771;28;20041;-81
2022/08/08 09:42:03;;;;;;;8.95;4.85;;;;;;;;;;5026964;28;20053;-81
2022/08/08 09:45:03;;;;;;;5.65;5.07;;;;;;;;;;5034010;28;20042;-80
2022/08/08 09:47:49;;;;;;;6.75;5.22;;;;;;;;;;5034786;28;20507;-81
2022/08/08 09:50:35;;;;;;;5.82;5.22;;;;;;;;;;5035353;28;20053;-81
2022/08/08 09:53:20;;;;;;;9.15;5.45;;;;;;;;;;5035036;28;20041;-81
2022/08/08 09:56:09;;;;;;;6.20;5.60;;;;;;;;;;5034994;28;20045;-81
2022/08/08 09:59:03;;;;;;;7.45;5.35;;;;;;;;;;5034811;28;20041;-81
2022/08/08 10:01:51;;;;;;;6.03;5.10;;;;;;;;;;5035195;28;20045;-81
2022/08/08 10:04:38;;;;;;;5.68;5.07;;;;;;;;;;5012987;28;20045;-80
2022/08/08 10:07:23;;;;;;;10.07;5.82;;;;;;;;;;5034017;28;20410;-81
2022/08/08 10:10:09;;;;;;;9.27;5.88;;;;;;;;;;5034765;28;20042;-78
2022/08/08 10:12:55;;;;;;;8.07;6.03;;;;;;;;;;5034776;28;20038;-81
2022/08/08 10:15:45;;;;;;;8.73;4.93;;;;;;;;;;5034574;28;20049;-79
2022/08/08 10:18:35;;;;;;;9.38;5.30;;;;;;;;;;5034835;28;20041;-83
2022/08/08 10:21:22;;;;;;;6.47;5.60;;;;;;;;;;5034828;28;20046;-81
2022/08/08 10:24:09;;;;;;;6.95;5.97;;;;;;;;;;5034716;28;20037;-82
2022/08/08 10:27:01;;;;;;;6.50;5.32;;;;;;;;;;5034558;28;20049;-80
2022/08/08 10:29:55;;;;;;;6.45;5.13;;;;;;;;;;5034153;28;20045;-81
2022/08/08 10:32:41;;;;;;;7.97;5.28;;;;;;;;;;5040970;28;20045;-82
2022/08/08 10:35:31;;;;;;;7.82;5.55;;;;;;;;;;5034060;28;20045;-81
2022/08/08 10:38:18;;;;;;;6.28;5.00;;;;;;;;;;5033608;28;20045;-82
2022/08/08 10:41:04;;;;;;;6.78;5.07;;;;;;;;;;5033983;28;20049;-79
2022/08/08 10:43:51;;;;;;;9.32;5.65;;;;;;;;;;5034141;28;20049;-82
2022/08/08 10:46:37;;;;;;;5.93;5.20;;;;;;;;;;5034044;28;20049;-81
2022/08/08 10:49:24;;;;;;;8.20;4.93;;;;;;;;;;5033491;28;20049;-79
2022/08/08 10:52:09;;;;;;;7.45;4.50;;;;;;;;;;5033938;28;20045;-80
2022/08/08 10:54:58;;;;;;;6.47;4.63;;;;;;;;;;5033551;28;20057;-81
2022/08/08 10:57:48;;;;;;;7.38;4.88;;;;;;;;;;5033840;28;20053;-81
2022/08/08 11:00:34;;;;;;;4.80;3.90;;;;;;;;;;5033084;28;20038;-80
2022/08/08 11:03:19;;;;;;;4.45;3.88;;;;;;;;;;5033603;28;20399;-81
2022/08/08 11:06:05;;;;;;;4.43;4.03;;;;;;;;;;5033654;28;20046;-79
2022/08/08 11:09:06;;;;;;;6.50;4.07;;;;;;;;;;5033461;28;20049;-79
2022/08/08 11:11:53;;;;;;;6.18;4.03;;;;;;;;;;5033686;28;20041;-79
2022/08/08 11:14:56;;;;;;;4.63;4.13;;;;;;;;;;5034083;28;20045;-80
2022/08/08 11:17:43;;;;;;;5.97;4.57;;;;;;;;;;5040200;28;20045;-80
2022/08/08 11:20:28;;;;;;;5.82;4.50;;;;;;;;;;5033285;28;20049;-80
2022/08/08 11:23:16;;;;;;;5.95;4.22;;;;;;;;;;5033203;28;20038;-79
2022/08/08 11:26:04;;;;;;;4.72;3.63;;;;;;;;;;5038968;28;20407;-79
2022/08/08 11:28:51;;;;;;;4.15;3.50;;;;;;;;;;5039743;28;20049;-80
2022/08/08 11:31:55;;;;;;;5.03;3.70;;;;;;;;;;5032946;28;20395;-80
2022/08/08 11:34:44;;;;;;;6.10;3.97;;;;;;;;;;5033353;28;20061;-81
2022/08/08 11:37:31;;;;;;;6.18;3.88;;;;;;;;;;5025524;28;20402;-79
2022/08/08 11:40:16;;;;;;;6.28;3.83;;;;;;;;;;5039322;28;20037;-81
2022/08/08 11:43:02;;;;;;;6.30;3.60;;;;;;;;;;5033214;28;20046;-82
2022/08/08 11:45:50;;;;;;;4.25;3.20;;;;;;;;;;5039548;28;20037;-82
2022/08/08 11:48:37;;;;;;;3.78;3.30;;;;;;;;;;5033286;28;20042;-78
2022/08/08 11:51:24;;;;;;;5.50;3.42;;;;;;;;;;5033145;28;20041;-75
2022/08/08 11:54:09;;;;;;;5.40;3.45;;;;;;;;;;5033083;28;20041;-77
2022/08/08 11:57:06;;;;;;;5.80;3.38;;;;;;;;;;5037436;28;20041;-80
2022/08/08 12:00:06;;;;;;;3.35;3.05;;;;;;;;;;5036849;28;20414;-77
2022/08/08 12:02:58;;;;;;;6.22;3.40;;;;;;;;;;5037056;28;20046;-79
2022/08/08 12:05:49;;;;;;;4.85;2.75;;;;;;;;;;5028768;28;20049;-81
2022/08/08 12:08:36;;;;;;;3.05;2.63;;;;;;;;;;5028524;28;20411;-79
2022/08/08 12:11:22;;;;;;;3.88;3.20;;;;;;;;;;5043431;28;20387;-78
2022/08/08 12:14:07;;;;;;;6.22;3.40;;;;;;;;;;5036809;28;20045;-78
2022/08/08 12:16:53;;;;;;;5.55;3.53;;;;;;;;;;5043029;28;20486;-77
2022/08/08 12:19:39;;;;;;;4.38;3.38;;;;;;;;;;5036792;28;20041;-80
2022/08/08 12:22:24;;;;;;;4.05;3.40;;;;;;;;;;5040298;28;20406;-77
2022/08/08 12:25:24;;;;;;;3.88;3.35;;;;;;;;;;5036737;28;20049;-79
2022/08/08 12:28:15;;;;;;;8.27;3.70;;;;;;;;;;5036353;28;20049;-78
2022/08/08 12:31:06;;;;;;;4.65;3.75;;;;;;;;;;5036951;28;20374;-78
2022/08/08 12:33:51;;;;;;;3.88;3.33;;;;;;;;;;5036856;28;20050;-77
2022/08/08 12:36:39;;;;;;;3.88;3.47;;;;;;;;;;5043366;28;20390;-77
2022/08/08 12:39:27;;;;;;;5.75;3.30;;;;;;;;;;5036293;28;20052;-80
2022/08/08 12:42:13;;;;;;;3.90;3.50;;;;;;;;;;5036227;28;20045;-77
2022/08/08 12:45:08;;;;;;;3.90;3.47;;;;;;;;;;5028431;28;20045;-78
2022/08/08 12:48:01;;;;;;;6.65;4.18;;;;;;;;;;5043129;28;20057;-82
2022/08/08 12:50:48;;;;;;;5.05;3.67;;;;;;;;;;5036393;28;20046;-79
2022/08/08 12:53:33;;;;;;;5.35;3.38;;;;;;;;;;5036411;28;20499;-77
2022/08/08 12:56:19;;;;;;;4.50;3.60;;;;;;;;;;5036134;28;20041;-78
2022/08/08 12:59:21;;;;;;;4.72;3.38;;;;;;;;;;5036126;28;20045;-79
2022/08/08 13:02:07;;;;;;;3.70;3.33;;;;;;;;;;5036377;28;20054;-80
2022/08/08 13:04:54;;;;;;;6.32;3.75;;;;;;;;;;5036437;28;20049;-81
2022/08/08 13:07:41;;;;;;;6.13;3.40;;;;;;;;;;5035651;28;20041;-80
2022/08/08 13:10:34;;;;;;;5.18;3.55;;;;;;;;;;5035457;28;20045;-82
2022/08/08 13:13:29;;;;;;;;;;;;;;;;;;5036062;28;20037;-79
2022/08/08 13:16:23;;;;;;;4.68;3.33;;;;;;;;;;5035660;28;19917;-78
2022/08/08 13:19:09;;;;;;;5.90;3.97;;;;;;;;;;5042129;28;20042;-80
2022/08/08 13:21:54;;;;;;;7.47;3.72;;;;;;;;;;5035648;28;20050;-78
2022/08/08 13:24:40;;;;;;;4.03;3.30;;;;;;;;;;5033276;28;20049;-77
2022/08/08 13:27:30;;;;;;;5.10;4.07;;;;;;;;;;5041380;28;20041;-80
2022/08/08 13:30:16;;;;;;;3.63;3.00;;;;;;;;;;5035344;28;20049;-80
2022/08/08 13:33:02;;;;;;;6.18;3.30;;;;;;;;;;5035171;28;20478;-79
2022/08/08 13:35:48;;;;;;;5.65;4.15;;;;;;;;;;5036263;28;20400;-77
2022/08/08 13:38:37;;;;;;;7.78;4.18;;;;;;;;;;5041942;28;20041;-79
2022/08/08 13:41:23;;;;;;;6.47;4.25;;;;;;;;;;5035556;28;20050;-77
2022/08/08 13:44:10;;;;;;;5.43;4.45;;;;;;;;;;5035764;28;20100;-79
2022/08/08 13:46:59;;;;;;;6.28;4.07;;;;;;;;;;5034906;28;20042;-78
2022/08/08 13:50:18;;;;;;;5.95;4.05;;;;;;;;;;5035909;28;20045;-80
2022/08/08 13:53:03;;;;;;;8.85;4.10;;;;;;;;;;5030121;28;20053;-79
2022/08/08 13:56:07;;;;;;;5.53;3.40;;;;;;;;;;5035567;28;20053;-78
2022/08/08 13:58:53;;;;;;;5.65;3.75;;;;;;;;;;5034445;28;20073;-79
2022/08/08 14:01:38;;;;;;;4.80;3.80;;;;;;;;;;5041146;28;20395;-80
2022/08/08 14:04:24;;;;;;;6.82;3.97;;;;;;;;;;5034991;28;20049;-78
2022/08/08 14:07:09;;;;;;;4.50;3.70;;;;;;;;;;5034732;28;20430;-78
2022/08/08 14:10:09;;;;;;;5.35;4.07;;;;;;;;;;5034973;28;20049;-77
2022/08/08 14:12:54;;;;;;;6.38;4.32;;;;;;;;;;5034806;28;20037;-80
2022/08/08 14:15:40;;;;;;;8.48;4.07;;;;;;;;;;5034059;28;20483;-81
2022/08/08 14:18:26;;;;;;;6.03;4.72;;;;;;;;;;5034661;28;20037;-77
2022/08/08 14:21:11;;;;;;;4.72;4.22;;;;;;;;;;5035105;28;20049;-76
2022/08/08 14:23:57;;;;;;;8.50;4.10;;;;;;;;;;5041179;28;20468;-80
2022/08/08 14:26:44;;;;;;;4.97;4.50;;;;;;;;;;5040880;28;20049;-80
2022/08/08 14:29:29;;;;;;;4.85;4.35;;;;;;;;;;5034207;28;20037;-78
2022/08/08 14:32:14;;;;;;;4.85;4.13;;;;;;;;;;5035269;28;20398;-76
2022/08/08 14:35:04;;;;;;;8.48;4.68;;;;;;;;;;5041619;28;20046;-78
2022/08/08 14:37:50;;;;;;;8.20;4.80;;;;;;;;;;5040141;28;20045;-79
2022/08/08 14:40:40;;;;;;;7.88;4.28;;;;;;;;;;5034247;28;20053;-79
2022/08/08 14:43:29;;;;;;;8.77;4.80;;;;;;;;;;5034304;28;20042;-78
2022/08/08 14:46:16;;;;;;;6.78;4.72;;;;;;;;;;5034641;28;20049;-79
2022/08/08 14:49:09;;;;;;;6.25;3.80;;;;;;;;;;5034314;28;20516;-77
2022/08/08 14:52:06;;;;;;;5.47;4.03;;;;;;;;;;5033667;28;20510;-77
2022/08/08 14:54:51;;;;;;;6.95;4.00;;;;;;;;;;5040938;28;20045;-77
2022/08/08 14:57:38;;;;;;;4.68;3.80;;;;;;;;;;5040872;28;20037;-77
2022/08/08 15:00:24;;;;;;;4.10;3.70;;;;;;;;;;5034152;28;20041;-77
2022/08/08 15:03:10;;;;;;;5.47;3.70;;;;;;;;;;5033936;28;20042;-80
2022/08/08 15:05:55;;;;;;;6.10;3.60;;;;;;;;;;5040425;28;20117;-78
2022/08/08 15:08:41;;;;;;;4.25;3.08;;;;;;;;;;5033936;28;20041;-79
2022/08/08 15:11:27;;;;;;;9.43;3.70;;;;;;;;;;5034273;28;20049;-78
2022/08/08 15:14:13;;;;;;;5.72;3.72;;;;;;;;;;5040478;28;20045;-78
2022/08/08 15:16:59;;;;;;;7.20;4.30;;;;;;;;;;5034089;28;20049;-78
2022/08/08 15:19:44;;;;;;;5.63;3.47;;;;;;;;;;5040550;28;20049;-77
2022/08/08 15:22:30;;;;;;;3.95;3.28;;;;;;;;;;5033467;28;20050;-76
2022/08/08 15:25:16;;;;;;;3.65;3.25;;;;;;;;;;5033872;28;20045;-79
2022/08/08 15:28:01;;;;;;;5.07;3.63;;;;;;;;;;5033603;28;20033;-77
2022/08/08 15:30:47;;;;;;;5.80;3.58;;;;;;;;;;5033029;28;20475;-78
2022/08/08 15:33:32;;;;;;;4.28;3.42;;;;;;;;;;5034675;28;20041;-78
2022/08/08 15:36:18;;;;;;;5.43;3.50;;;;;;;;;;5034186;28;20049;-80
2022/08/08 15:39:03;;;;;;;3.95;3.55;;;;;;;;;;5040348;28;20054;-79
2022/08/08 15:41:49;;;;;;;8.23;4.00;;;;;;;;;;5034122;28;20034;-78
2022/08/08 15:44:35;;;;;;;7.07;3.85;;;;;;;;;;5033636;28;20045;-78
2022/08/08 15:47:21;;;;;;;5.13;4.00;;;;;;;;;;5032979;28;20448;-79
2022/08/08 15:50:06;;;;;;;7.38;3.45;;;;;;;;;;5032282;28;20046;-82
2022/08/08 15:52:51;;;;;;;7.53;3.22;;;;;;;;;;5032915;28;20045;-79
2022/08/08 15:55:37;;;;;;;4.25;2.90;;;;;;;;;;5033241;28;20495;-77
2022/08/08 15:58:23;;;;;;;4.88;2.75;;;;;;;;;;5033427;28;20053;-78
2022/08/08 16:01:08;;;;;;;2.60;1.90;;;;;;;;;;5033187;28;20041;-77
2022/08/08 16:03:54;;;;;;;6.03;2.63;;;;;;;;;;5039311;28;20054;-79
2022/08/08 16:06:47;;;;;;;3.90;2.92;;;;;;;;;;5039748;28;20046;-79
2022/08/08 16:09:33;;;;;;;3.05;2.60;;;;;;;;;;5033262;28;20049;-77
2022/08/08 16:12:18;;;;;;;4.25;2.65;;;;;;;;;;5033108;28;20049;-79
2022/08/08 16:15:05;;;;;;;3.38;2.60;;;;;;;;;;5032844;28;20049;-78
2022/08/08 16:17:49;;;;;;;4.78;2.80;;;;;;;;;;5039665;28;20042;-79
2022/08/08 16:20:35;;;;;;;6.97;3.20;;;;;;;;;;5033061;28;20053;-77
2022/08/08 16:23:21;;;;;;;3.30;2.78;;;;;;;;;;5032678;28;20406;-80
2022/08/08 16:26:06;;;;;;;3.20;2.90;;;;;;;;;;5032628;28;20050;-77
2022/08/08 16:28:52;;;;;;;2.83;2.42;;;;;;;;;;5032920;28;20041;-77
2022/08/08 16:31:41;;;;;;;4.45;3.05;;;;;;;;;;5032850;28;20046;-78
2022/08/08 16:34:26;;;;;;;5.15;2.97;;;;;;;;;;5033246;28;20045;-80
2022/08/08 16:37:12;;;;;;;7.55;3.50;;;;;;;;;;5032755;28;20049;-78
2022/08/08 16:39:57;;;;;;;6.88;3.35;;;;;;;;;;5032052;28;20049;-77
2022/08/08 16:42:43;;;;;;;5.45;3.60;;;;;;;;;;5035980;28;20053;-79
2022/08/08 16:45:28;;;;;;;4.95;3.50;;;;;;;;;;5036927;28;20045;-78
2022/08/08 16:48:14;;;;;;;5.10;3.88;;;;;;;;;;5046381;28;20049;-78
2022/08/08 16:51:00;;;;;;;8.32;4.43;;;;;;;;;;5039177;28;20053;-79
2022/08/08 16:53:45;;;;;;;8.00;4.30;;;;;;;;;;5039867;28;20057;-78
2022/08/08 16:56:31;;;;;;;5.60;3.92;;;;;;;;;;5039879;28;20399;-79
2022/08/08 16:59:16;;;;;;;7.43;3.50;;;;;;;;;;5039919;28;20045;-77
2022/08/08 17:02:01;;;;;;;6.32;3.72;;;;;;;;;;5039867;28;20045;-78
2022/08/08 17:04:48;;;;;;;11.50;4.05;;;;;;;;;;5040103;28;20045;-78
2022/08/08 17:07:34;;;;;;;9.85;6.28;;;;;;;;;;5024387;28;20037;-77
2022/08/08 17:10:20;;;;;;;6.15;3.60;;;;;;;;;;5036528;28;20041;-77
2022/08/08 17:13:05;;;;;;;5.13;3.63;;;;;;;;;;5035772;28;20046;-79
2022/08/08 17:15:51;;;;;;;4.60;3.75;;;;;;;;;;5042158;28;20510;-80
2022/08/08 17:18:36;;;;;;;5.45;3.50;;;;;;;;;;5035601;28;20045;-76